Time;durP1;ratioP1;P1;durP2;ratioP2;P2;SDS_P1;SDS_P2;PMS_P1;PMS_P2;Temp;Humidity;BMP_temperature;BMP_pressure;BME280_temperature;BME280_humidity;BME280_pressure;Samples;Min_cycle;Max_cycle;Signal;HPM_P1;HPM_P2
2022/08/01 00:01:41;;;;;;;10.95;4.00;;;;;;;9.47;100.00;101413.72;5016085;28;20080;-76
2022/08/01 00:04:09;;;;;;;7.55;3.30;;;;;;;9.39;100.00;101413.66;5025337;28;20188;-76
2022/08/01 00:06:34;;;;;;;7.13;3.05;;;;;;;9.33;100.00;101416.94;4993199;28;20125;-76
2022/08/01 00:09:00;;;;;;;8.05;3.45;;;;;;;9.29;100.00;101424.47;5004876;28;20502;-76
2022/08/01 00:11:26;;;;;;;8.50;3.83;;;;;;;9.28;100.00;101417.41;5002294;28;20254;-77
2022/08/01 00:13:52;;;;;;;9.70;3.92;;;;;;;9.25;100.00;101406.97;5002935;28;20431;-77
2022/08/01 00:16:19;;;;;;;7.13;3.45;;;;;;;9.27;100.00;101414.88;5006580;28;20042;-77
2022/08/01 00:18:44;;;;;;;8.60;3.95;;;;;;;9.25;100.00;101417.69;4993398;28;20042;-77
2022/08/01 00:21:10;;;;;;;13.48;3.90;;;;;;;9.29;100.00;101412.88;5023138;28;20529;-77
2022/08/01 00:23:36;;;;;;;11.13;3.92;;;;;;;9.32;100.00;101404.53;5008393;28;20026;-77
2022/08/01 00:26:02;;;;;;;8.23;3.78;;;;;;;9.34;100.00;101407.88;5024044;28;20030;-76
2022/08/01 00:28:27;;;;;;;14.13;4.20;;;;;;;9.33;100.00;101408.91;4998761;28;20033;-76
2022/08/01 00:30:53;;;;;;;8.00;3.67;;;;;;;9.24;100.00;101389.19;5022354;28;20382;-76
2022/08/01 00:33:19;;;;;;;7.78;3.88;;;;;;;9.34;100.00;101407.88;5005441;28;20411;-77
2022/08/01 00:35:44;;;;;;;11.88;4.13;;;;;;;9.37;100.00;101404.94;4988259;28;20025;-77
2022/08/01 00:38:11;;;;;;;8.88;3.72;;;;;;;9.39;100.00;101400.22;4992442;28;20040;-76
2022/08/01 00:40:36;;;;;;;9.90;3.58;;;;;;;9.40;100.00;101404.63;4992669;28;20042;-76
2022/08/01 00:43:02;;;;;;;10.98;4.00;;;;;;;9.43;100.00;101404.31;5019216;28;20038;-76
2022/08/01 00:45:28;;;;;;;9.68;3.88;;;;;;;9.37;100.00;101394.19;5002110;28;20040;-77
2022/08/01 00:47:54;;;;;;;8.60;3.90;;;;;;;9.47;100.00;101400.31;4990712;28;20045;-76
2022/08/01 00:50:19;;;;;;;13.82;3.65;;;;;;;9.37;100.00;101386.13;5000790;28;20029;-76
2022/08/01 00:52:45;;;;;;;14.18;3.67;;;;;;;9.41;100.00;101391.03;4995106;28;20049;-76
2022/08/01 00:55:12;;;;;;;13.88;4.07;;;;;;;9.10;100.00;101333.34;5026883;28;20048;-76
2022/08/01 00:57:39;;;;;;;8.75;3.50;;;;;;;9.48;100.00;101393.13;5010569;28;20107;-77
2022/08/01 01:00:05;;;;;;;14.13;3.60;;;;;;;9.48;100.00;101385.06;5004130;28;20034;-76
2022/08/01 01:02:31;;;;;;;8.05;3.22;;;;;;;9.51;100.00;101380.22;5023679;28;20509;-76
2022/08/01 01:04:57;;;;;;;8.77;3.88;;;;;;;9.53;100.00;101388.97;4993206;28;20046;-76
2022/08/01 01:08:03;;;;;;;13.13;4.00;;;;;;;9.54;100.00;101395.19;5028930;28;20068;-76
2022/08/01 01:10:38;;;;;;;13.02;3.83;;;;;;;9.60;100.00;101394.56;5001460;28;20645;-76
2022/08/01 01:13:16;;;;;;;224.57;38.78;;;;;;;9.62;100.00;101390.72;5022904;28;20503;-76
2022/08/01 01:15:44;;;;;;;9.50;3.58;;;;;;;9.62;100.00;101382.66;5007844;28;20041;-76
2022/08/01 01:18:22;;;;;;;8.93;3.28;;;;;;;9.53;100.00;101370.19;4993401;28;20034;-76
2022/08/01 01:21:08;;;;;;;6.95;3.13;;;;;;;9.61;100.00;101370.25;5016549;28;20048;-76
2022/08/01 01:23:46;;;;;;;8.88;3.10;;;;;;;9.60;100.00;101373.91;5004428;28;20034;-76
2022/08/01 01:26:32;;;;;;;11.23;3.58;;;;;;;9.62;100.00;101377.31;5046279;28;20088;-76
2022/08/01 01:29:30;;;;;;;15.45;3.80;;;;;;;9.61;100.00;101375.63;5003505;28;20066;-76
2022/08/01 01:32:05;;;;;;;10.73;3.58;;;;;;;9.57;100.00;101376.06;5013246;28;20243;-76
2022/08/01 01:34:34;;;;;;;14.68;4.00;;;;;;;9.58;100.00;101367.88;5021545;28;20395;-77
2022/08/01 01:37:01;;;;;;;9.45;3.65;;;;;;;9.65;100.00;101366.25;5012122;28;20043;-76
2022/08/01 01:39:29;;;;;;;8.88;3.55;;;;;;;9.66;100.00;101372.47;4994678;28;20033;-76
2022/08/01 01:41:55;;;;;;;9.95;2.90;;;;;;;9.67;100.00;101375.00;5008429;28;20129;-76
2022/08/01 01:44:21;;;;;;;11.98;4.07;;;;;;;9.66;100.00;101372.47;4994928;28;20049;-76
2022/08/01 01:46:48;;;;;;;7.65;3.70;;;;;;;9.64;100.00;101369.09;5018106;28;20033;-78
2022/08/01 01:49:14;;;;;;;7.90;3.50;;;;;;;9.64;100.00;101367.25;5018725;28;20487;-76
2022/08/01 01:51:40;;;;;;;8.02;3.67;;;;;;;9.67;100.00;101352.69;5004493;28;20049;-77
2022/08/01 01:54:07;;;;;;;14.02;3.85;;;;;;;9.70;100.00;101352.34;5023037;28;20414;-76
2022/08/01 01:56:35;;;;;;;7.03;2.90;;;;;;;9.72;100.00;101355.75;5019676;28;20030;-76
2022/08/01 01:59:02;;;;;;;7.63;3.17;;;;;;;9.74;100.00;101347.50;4989978;28;20046;-77
2022/08/01 02:01:29;;;;;;;6.28;3.17;;;;;;;9.75;100.00;101346.53;5001520;28;20033;-76
2022/08/01 02:03:56;;;;;;;16.38;3.92;;;;;;;9.67;100.00;101326.66;5016635;28;20033;-77
2022/08/01 02:06:24;;;;;;;8.68;3.38;;;;;;;9.78;100.00;101338.16;5001418;28;21841;-76
2022/08/01 02:08:50;;;;;;;6.18;2.65;;;;;;;9.71;100.00;101315.59;5010469;28;20364;-76
2022/08/01 02:11:18;;;;;;;6.00;2.92;;;;;;;9.79;100.00;101315.66;5018409;28;20029;-76
2022/08/01 02:13:46;;;;;;;8.48;3.55;;;;;;;9.74;100.00;101301.84;5008850;28;20037;-76
2022/08/01 02:16:13;;;;;;;7.90;3.13;;;;;;;9.82;100.00;101310.00;4995274;28;20057;-76
2022/08/01 02:18:40;;;;;;;7.43;2.83;;;;;;;9.81;100.00;101309.13;4993886;28;20851;-77
2022/08/01 02:21:11;;;;;;;6.88;2.58;;;;;;;9.83;100.00;101317.88;5021046;28;22195;-77
2022/08/01 02:23:38;;;;;;;10.82;3.20;;;;;;;9.88;100.00;101320.09;5022070;28;20077;-76
2022/08/01 02:26:10;;;;;;;8.93;2.67;;;;;;;9.88;100.00;101328.16;5009208;28;20030;-76
2022/08/01 02:28:54;;;;;;;7.93;3.00;;;;;;;9.82;100.00;101310.00;5025378;28;20451;-77
2022/08/01 02:31:21;;;;;;;6.20;2.70;;;;;;;9.92;100.00;101326.81;5008494;28;20025;-76
2022/08/01 02:34:02;;;;;;;6.90;2.75;;;;;;;9.89;100.00;101321.78;5009929;28;20038;-76
2022/08/01 02:36:28;;;;;;;8.80;3.00;;;;;;;9.87;100.00;101316.59;5028036;28;20044;-75
2022/08/01 02:38:56;;;;;;;7.10;2.58;;;;;;;9.95;100.00;101328.34;5008428;28;20068;-78
2022/08/01 02:41:23;;;;;;;6.57;2.50;;;;;;;9.90;100.00;101328.84;5017106;28;20029;-76
2022/08/01 02:43:51;;;;;;;6.30;2.78;;;;;;;9.91;100.00;101333.22;4983637;28;20475;-76
2022/08/01 02:46:21;;;;;;;4.97;2.70;;;;;;;9.91;100.00;101327.84;5026328;28;20087;-76
2022/08/01 02:48:47;;;;;;;10.75;2.90;;;;;;;9.89;100.00;101337.91;5023575;28;20052;-75
2022/08/01 02:51:13;;;;;;;6.90;2.92;;;;;;;9.88;100.00;101331.69;4996646;28;20455;-76
2022/08/01 02:53:41;;;;;;;5.60;2.92;;;;;;;9.92;100.00;101326.81;5025072;28;20493;-76
2022/08/01 02:56:08;;;;;;;5.68;2.80;;;;;;;10.03;100.00;101326.59;4990286;28;20164;-76
2022/08/01 02:58:36;;;;;;;5.82;2.60;;;;;;;10.02;100.00;101316.00;5017345;28;20542;-76
2022/08/01 03:01:02;;;;;;;4.75;2.38;;;;;;;10.07;100.00;101313.66;5015472;28;20061;-76
2022/08/01 03:03:29;;;;;;;5.30;2.25;;;;;;;10.04;100.00;101308.63;5023508;28;20071;-75
2022/08/01 03:05:55;;;;;;;5.00;2.47;;;;;;;10.01;100.00;101309.78;5008247;28;20038;-76
2022/08/01 03:08:21;;;;;;;6.30;3.17;;;;;;;10.00;100.00;101309.94;4979437;28;20387;-76
2022/08/01 03:10:47;;;;;;;5.10;2.33;;;;;;;9.98;100.00;101296.66;4996544;28;20056;-75
2022/08/01 03:13:14;;;;;;;4.18;2.42;;;;;;;9.98;100.00;101291.28;4998337;28;20057;-76
2022/08/01 03:15:41;;;;;;;4.22;2.35;;;;;;;10.01;100.00;101282.06;5010284;28;20095;-75
2022/08/01 03:18:08;;;;;;;4.63;2.28;;;;;;;9.96;100.00;101279.03;5007019;28;20073;-76
2022/08/01 03:20:35;;;;;;;4.05;1.95;;;;;;;9.95;100.00;101274.63;5000321;28;20033;-76
2022/08/01 03:23:08;;;;;;;9.38;2.25;;;;;;;9.96;100.00;101277.16;4987094;28;20045;-75
2022/08/01 03:25:36;;;;;;;4.72;2.33;;;;;;;9.97;100.00;101278.00;5009299;28;20477;-78
2022/08/01 03:28:03;;;;;;;4.00;2.00;;;;;;;9.99;100.00;101276.84;5002610;28;20380;-78
2022/08/01 03:30:30;;;;;;;6.07;1.92;;;;;;;10.00;100.00;101262.44;5004900;28;20034;-78
2022/08/01 03:32:56;;;;;;;5.22;2.17;;;;;;;10.02;100.00;101281.06;5029360;28;20538;-76
2022/08/01 03:35:25;;;;;;;3.92;2.22;;;;;;;9.94;100.00;101257.69;4988962;28;20100;-78
2022/08/01 03:37:53;;;;;;;4.90;2.30;;;;;;;10.13;100.00;101280.78;5015066;28;20033;-79
2022/08/01 03:40:25;;;;;;;6.97;2.33;;;;;;;10.26;100.00;101289.25;5038590;28;20033;-77
2022/08/01 03:43:00;;;;;;;3.60;1.85;;;;;;;10.29;100.00;101280.03;5013625;28;20052;-79
2022/08/01 03:45:28;;;;;;;3.30;1.85;;;;;;;10.42;100.00;101295.72;4992611;28;20495;-78
2022/08/01 03:48:03;;;;;;;4.57;2.05;;;;;;;10.42;100.00;101277.75;5019712;28;20037;-77
2022/08/01 03:50:33;;;;;;;4.20;2.47;;;;;;;10.41;100.00;101280.63;5012540;28;20099;-77
2022/08/01 03:53:00;;;;;;;3.45;2.10;;;;;;;10.32;100.00;101266.31;5011686;28;20467;-77
2022/08/01 03:55:26;;;;;;;3.47;1.98;;;;;;;10.22;100.00;101260.19;4985315;28;20074;-77
2022/08/01 03:57:52;;;;;;;4.95;2.05;;;;;;;10.13;100.00;101262.84;5014059;28;20041;-76
2022/08/01 04:00:18;;;;;;;3.45;2.00;;;;;;;10.07;100.00;101259.94;4996753;28;20109;-76
2022/08/01 04:02:49;;;;;;;4.65;2.30;;;;;;;9.89;100.00;101244.72;5013806;28;20125;-77
2022/08/01 04:05:18;;;;;;;4.75;2.17;;;;;;;9.94;100.00;101256.84;5030149;28;20041;-77
2022/08/01 04:07:50;;;;;;;4.97;2.50;;;;;;;9.84;100.00;101224.72;5002817;28;20581;-76
2022/08/01 04:10:16;;;;;;;5.03;2.55;;;;;;;9.92;100.00;101232.81;5021192;28;20443;-77
2022/08/01 04:12:42;;;;;;;2.80;1.92;;;;;;;9.90;100.00;101229.47;5005673;28;20045;-76
2022/08/01 04:15:08;;;;;;;4.50;2.00;;;;;;;9.86;100.00;101230.78;5011177;28;20108;-77
2022/08/01 04:17:34;;;;;;;7.05;2.42;;;;;;;9.78;100.00;101225.34;5007468;28;20075;-78
2022/08/01 04:19:59;;;;;;;5.38;1.90;;;;;;;9.72;100.00;101236.75;4998599;28;20034;-77
2022/08/01 04:22:25;;;;;;;3.35;2.10;;;;;;;9.62;100.00;101247.59;5019365;28;20077;-77
2022/08/01 04:24:53;;;;;;;4.90;2.15;;;;;;;9.35;100.00;101211.84;5011443;28;20502;-76
2022/08/01 04:27:24;;;;;;;5.05;2.17;;;;;;;9.13;100.00;101191.72;5028924;28;20051;-77
2022/08/01 04:29:51;;;;;;;4.20;1.98;;;;;;;9.40;100.00;101235.53;5014403;28;20483;-77
2022/08/01 04:32:18;;;;;;;6.10;2.10;;;;;;;9.41;100.00;101237.19;5000655;28;20041;-77
2022/08/01 04:34:46;;;;;;;4.55;2.30;;;;;;;9.42;100.00;101242.44;5027386;28;20100;-77
2022/08/01 04:37:12;;;;;;;4.75;1.83;;;;;;;9.40;100.00;101227.47;5031781;28;20040;-77
2022/08/01 04:39:39;;;;;;;3.95;2.40;;;;;;;9.54;100.00;101234.09;5015374;28;20044;-76
2022/08/01 04:42:05;;;;;;;4.40;2.17;;;;;;;9.71;100.00;101229.66;5012997;28;20030;-77
2022/08/01 04:44:32;;;;;;;3.97;2.22;;;;;;;9.83;100.00;101231.09;4996983;28;20033;-76
2022/08/01 04:46:59;;;;;;;3.97;2.40;;;;;;;9.93;100.00;101222.94;5000297;28;20155;-76
2022/08/01 04:49:25;;;;;;;3.85;2.00;;;;;;;9.95;100.00;101212.84;5027789;28;20037;-77
2022/08/01 04:51:59;;;;;;;5.53;2.90;;;;;;;9.85;100.00;101200.41;4994244;28;20041;-77
2022/08/01 04:54:30;;;;;;;3.65;1.73;;;;;;;9.77;100.00;101212.94;4983983;28;20964;-77
2022/08/01 04:56:59;;;;;;;5.43;2.22;;;;;;;9.61;100.00;101201.09;5004577;28;20041;-77
2022/08/01 04:59:41;;;;;;;3.30;2.20;;;;;;;9.67;100.00;101219.25;5008791;28;20036;-76
2022/08/01 05:02:08;;;;;;;7.53;1.92;;;;;;;9.50;100.00;101214.81;5005899;28;20034;-78
2022/08/01 05:04:34;;;;;;;4.07;2.00;;;;;;;9.48;100.00;101219.47;4993897;28;20052;-77
2022/08/01 05:06:59;;;;;;;3.80;1.90;;;;;;;9.42;100.00;101212.91;5018161;28;20029;-77
2022/08/01 05:09:25;;;;;;;4.07;2.38;;;;;;;9.49;100.00;101223.84;5018824;28;20121;-76
2022/08/01 05:11:51;;;;;;;3.42;2.13;;;;;;;9.67;100.00;101231.84;5010732;28;20025;-76
2022/08/01 05:14:17;;;;;;;3.13;2.10;;;;;;;9.88;100.00;101221.56;5021762;28;20044;-78
2022/08/01 05:16:46;;;;;;;7.25;2.30;;;;;;;10.12;100.00;101220.81;5008547;28;20030;-76
2022/08/01 05:19:12;;;;;;;3.67;1.92;;;;;;;10.33;100.00;101215.06;5025014;28;20045;-76
2022/08/01 05:21:37;;;;;;;4.53;2.15;;;;;;;10.54;100.00;101209.25;5012376;28;20442;-77
2022/08/01 05:24:04;;;;;;;3.65;2.30;;;;;;;10.61;100.00;101205.88;4989926;28;20045;-77
2022/08/01 05:26:30;;;;;;;3.40;1.92;;;;;;;10.62;100.00;101202.22;4984901;28;20474;-78
2022/08/01 05:28:56;;;;;;;5.07;2.40;;;;;;;10.36;100.00;101165.50;5019053;28;20044;-78
2022/08/01 05:31:22;;;;;;;4.78;2.35;;;;;;;10.53;100.00;101185.19;5008979;28;20394;-77
2022/08/01 05:33:47;;;;;;;4.78;2.30;;;;;;;10.50;100.00;101177.47;4985880;28;20179;-77
2022/08/01 05:36:13;;;;;;;6.93;2.50;;;;;;;10.50;100.00;101178.28;4993736;28;20056;-77
2022/08/01 05:38:38;;;;;;;7.65;2.40;;;;;;;10.43;100.00;101182.69;5005701;28;20514;-77
2022/08/01 05:41:04;;;;;;;5.57;2.10;;;;;;;10.40;100.00;101183.00;4986870;28;20089;-77
2022/08/01 05:43:30;;;;;;;3.83;2.28;;;;;;;10.26;100.00;101168.28;5021099;28;20036;-77
2022/08/01 05:45:56;;;;;;;4.85;2.38;;;;;;;10.46;100.00;101195.78;5012743;28;20041;-76
2022/08/01 05:48:22;;;;;;;5.22;2.72;;;;;;;10.57;100.00;101182.00;5015548;28;20083;-77
2022/08/01 05:50:47;;;;;;;5.65;2.58;;;;;;;10.76;100.00;101188.09;5027187;28;20133;-77
2022/08/01 05:53:13;;;;;;;6.68;2.65;;;;;;;10.89;100.00;101187.59;5003703;28;20029;-77
2022/08/01 05:55:39;;;;;;;7.03;3.10;;;;;;;10.92;100.00;101168.44;4995423;28;20030;-78
2022/08/01 05:58:04;;;;;;;5.13;2.58;;;;;;;11.23;100.00;101179.34;4996980;28;20037;-77
2022/08/01 06:00:30;;;;;;;4.38;2.60;;;;;;;11.59;100.00;101170.88;5027475;28;20092;-77
2022/08/01 06:02:56;;;;;;;5.00;2.88;;;;;;;12.06;100.00;101168.19;5003808;28;20049;-77
2022/08/01 06:05:24;;;;;;;4.43;2.85;;;;;;;13.40;100.00;101164.22;4995687;28;20040;-77
2022/08/01 06:07:52;;;;;;;3.80;2.00;;;;;;;13.76;100.00;101157.22;4997335;28;20030;-77
2022/08/01 06:10:18;;;;;;;5.68;2.80;;;;;;;13.78;100.00;101156.03;5008506;28;20081;-77
2022/08/01 06:12:44;;;;;;;4.53;2.80;;;;;;;13.45;100.00;101150.16;5013516;28;20103;-76
2022/08/01 06:15:10;;;;;;;4.78;2.53;;;;;;;13.33;100.00;101143.53;4995865;28;20064;-77
2022/08/01 06:17:35;;;;;;;3.45;2.20;;;;;;;13.16;100.00;101140.97;5011859;28;20060;-76
2022/08/01 06:20:02;;;;;;;3.50;2.47;;;;;;;12.98;100.00;101141.28;5025206;28;20076;-76
2022/08/01 06:22:27;;;;;;;4.28;2.15;;;;;;;12.93;100.00;101142.88;5026147;28;20483;-76
2022/08/01 06:24:53;;;;;;;4.20;2.30;;;;;;;12.94;100.00;101131.06;5011146;28;20059;-76
2022/08/01 06:27:21;;;;;;;3.95;2.30;;;;;;;13.10;100.00;101141.72;5006317;28;20038;-77
2022/08/01 06:29:53;;;;;;;3.20;2.00;;;;;;;13.44;100.00;101124.16;4994308;28;20065;-76
2022/08/01 06:32:19;;;;;;;5.30;2.20;;;;;;;13.68;100.00;101127.59;4995753;28;20034;-77
2022/08/01 06:34:45;;;;;;;5.03;2.22;;;;;;;13.81;100.00;101136.75;5030453;28;20025;-77
2022/08/01 06:37:12;;;;;;;4.47;2.10;;;;;;;13.78;100.00;101128.16;4993220;28;20041;-77
2022/08/01 06:39:38;;;;;;;7.05;2.40;;;;;;;13.83;100.00;101140.09;5014662;28;20029;-77
2022/08/01 06:42:07;;;;;;;4.97;2.53;;;;;;;13.86;100.00;101136.16;5011258;28;20095;-76
2022/08/01 06:44:32;;;;;;;3.58;2.05;;;;;;;14.13;100.00;101141.91;5018317;28;20085;-76
2022/08/01 06:46:58;;;;;;;4.47;2.60;;;;;;;15.05;100.00;101133.91;4986108;28;20041;-76
2022/08/01 06:49:24;;;;;;;3.63;2.40;;;;;;;16.24;100.00;101130.22;4989829;28;20042;-76
2022/08/01 06:51:59;;;;;;;3.38;1.98;;;;;;;17.36;100.00;101137.66;5007603;28;20034;-77
2022/08/01 06:54:25;;;;;;;3.70;2.00;;;;;;;17.26;100.00;101117.41;4997901;28;20084;-76
2022/08/01 06:56:51;;;;;;;3.70;2.08;;;;;;;17.08;100.00;101112.59;5000154;28;20121;-78
2022/08/01 06:59:20;;;;;;;2.63;2.00;;;;;;;17.47;99.88;101124.47;5025676;28;20037;-77
2022/08/01 07:01:45;;;;;;;3.20;1.95;;;;;;;18.97;93.67;101119.53;4993360;28;20045;-77
2022/08/01 07:04:11;;;;;;;3.92;2.00;;;;;;;18.97;92.13;101118.72;5010160;28;20076;-77
2022/08/01 07:06:42;;;;;;;2.75;1.70;;;;;;;18.58;92.54;101112.50;5011653;28;20443;-76
2022/08/01 07:09:10;;;;;;;3.35;1.63;;;;;;;18.45;92.15;101127.84;5001294;28;20073;-77
2022/08/01 07:11:37;;;;;;;3.17;2.05;;;;;;;18.21;93.10;101120.47;5007845;28;20044;-77
2022/08/01 07:14:03;;;;;;;3.00;1.83;;;;;;;18.24;92.47;101115.41;4999238;28;20034;-77
2022/08/01 07:16:28;;;;;;;2.17;1.60;;;;;;;18.16;91.76;101118.38;4988350;28;20033;-76
2022/08/01 07:18:54;;;;;;;1.92;1.20;;;;;;;17.92;91.50;101114.53;5019047;28;20041;-77
2022/08/01 07:21:20;;;;;;;3.05;1.70;;;;;;;17.53;91.98;101110.03;5006168;28;20052;-77
2022/08/01 07:23:46;;;;;;;5.82;2.13;;;;;;;17.00;92.22;101100.06;5015241;28;20033;-77
2022/08/01 07:26:13;;;;;;;3.33;2.03;;;;;;;16.77;92.67;101113.19;5007512;28;20126;-77
2022/08/01 07:28:38;;;;;;;2.30;1.40;;;;;;;16.58;92.38;101110.25;5004889;28;20040;-77
2022/08/01 07:31:04;;;;;;;2.92;1.80;;;;;;;16.52;92.17;101097.53;5011435;28;20042;-77
2022/08/01 07:33:30;;;;;;;5.25;1.88;;;;;;;16.48;90.02;101075.38;5020900;28;20029;-76
2022/08/01 07:35:56;;;;;;;4.15;1.90;;;;;;;16.56;87.54;101100.66;4983176;28;20053;-76
2022/08/01 07:38:22;;;;;;;2.80;1.77;;;;;;;16.42;87.64;101110.66;5045754;28;22234;-77
2022/08/01 07:40:48;;;;;;;2.47;1.60;;;;;;;16.25;87.81;101099.34;5015782;28;20059;-74
2022/08/01 07:43:14;;;;;;;3.13;1.90;;;;;;;16.18;88.16;101101.19;5001569;28;20041;-77
2022/08/01 07:45:40;;;;;;;4.57;1.60;;;;;;;16.04;88.37;101084.06;4988545;28;20037;-74
2022/08/01 07:48:07;;;;;;;3.15;1.92;;;;;;;15.86;87.29;101071.06;5009643;28;20460;-77
2022/08/01 07:50:33;;;;;;;4.90;1.90;;;;;;;16.03;88.67;101095.94;5018945;28;20072;-76
2022/08/01 07:52:59;;;;;;;3.85;1.80;;;;;;;16.18;89.63;101099.31;5010587;28;20064;-77
2022/08/01 07:55:25;;;;;;;25.00;9.30;;;;;;;16.43;89.56;101105.03;5024361;28;20467;-77
2022/08/01 07:57:51;;;;;;;4.55;2.20;;;;;;;16.65;88.65;101094.81;4994833;28;20041;-77
2022/08/01 08:00:16;;;;;;;2.85;1.92;;;;;;;16.69;89.08;101090.63;5002494;28;20099;-77
2022/08/01 08:02:42;;;;;;;5.63;2.33;;;;;;;16.51;90.07;101086.84;5026424;28;20029;-77
2022/08/01 08:05:08;;;;;;;4.25;2.03;;;;;;;16.48;91.29;101088.09;4989709;28;20033;-77
2022/08/01 08:07:34;;;;;;;4.32;2.10;;;;;;;16.42;91.33;101080.78;5023660;28;20041;-76
2022/08/01 08:10:01;;;;;;;4.38;1.80;;;;;;;16.48;93.13;101080.81;5000705;28;20030;-76
2022/08/01 08:12:29;;;;;;;5.25;2.10;;;;;;;16.51;93.12;101079.53;5004188;28;20068;-76
2022/08/01 08:14:56;;;;;;;6.07;2.65;;;;;;;16.31;93.35;101082.25;4991569;28;20065;-76
2022/08/01 08:17:21;;;;;;;10.18;4.57;;;;;;;16.03;94.04;101068.81;5029174;28;20030;-76
2022/08/01 08:19:47;;;;;;;7.18;4.50;;;;;;;16.07;94.74;101083.66;4994088;28;20044;-76
2022/08/01 08:22:12;;;;;;;6.38;3.15;;;;;;;16.18;96.20;101077.63;5010104;28;20107;-76
2022/08/01 08:24:38;;;;;;;4.75;2.50;;;;;;;16.34;96.38;101076.41;5027825;28;20033;-80
2022/08/01 08:27:04;;;;;;;2.95;1.98;;;;;;;16.50;94.81;101072.44;5006151;28;20034;-77
2022/08/01 08:29:32;;;;;;;4.88;2.33;;;;;;;16.63;94.47;101069.75;4993255;28;20978;-76
2022/08/01 08:31:59;;;;;;;5.03;2.38;;;;;;;16.61;93.32;101058.25;5003701;28;20033;-77
2022/08/01 08:34:26;;;;;;;3.58;1.73;;;;;;;16.64;94.37;101074.13;4984845;28;20133;-78
2022/08/01 08:36:53;;;;;;;2.72;1.50;;;;;;;16.47;95.30;101056.59;5019884;28;20030;-77
2022/08/01 08:39:18;;;;;;;3.15;1.42;;;;;;;16.42;95.51;101072.66;5009026;28;20408;-77
2022/08/01 08:41:44;;;;;;;3.53;1.63;;;;;;;16.23;96.63;101072.41;5021293;28;20044;-78
2022/08/01 08:44:10;;;;;;;3.75;1.75;;;;;;;16.09;99.26;101045.44;5017277;28;20328;-78
2022/08/01 08:46:55;;;;;;;2.55;1.40;;;;;;;16.12;99.93;101067.59;5001439;28;20033;-79
2022/08/01 08:49:26;;;;;;;3.13;1.60;;;;;;;16.01;100.00;101057.34;4983763;28;20042;-77
2022/08/01 08:51:53;;;;;;;4.38;2.95;;;;;;;15.99;100.00;101040.44;4996598;28;20041;-78
2022/08/01 08:54:21;;;;;;;3.47;2.47;;;;;;;16.07;100.00;101053.81;5024673;28;20060;-80
2022/08/01 08:56:48;;;;;;;4.15;2.25;;;;;;;15.97;100.00;101037.09;5054576;28;20168;-79
2022/08/01 08:59:13;;;;;;;4.07;2.10;;;;;;;16.00;100.00;101052.94;5028151;28;20041;-78
2022/08/01 09:01:39;;;;;;;4.93;2.53;;;;;;;15.98;100.00;101047.75;5009375;28;20304;-78
2022/08/01 09:04:05;;;;;;;2.70;1.83;;;;;;;15.85;100.00;101038.72;5007557;28;20255;-80
2022/08/01 09:06:33;;;;;;;5.75;2.65;;;;;;;15.58;100.00;101023.16;5021464;28;20026;-79
2022/08/01 09:09:00;;;;;;;3.75;2.38;;;;;;;15.65;100.00;101039.44;5031471;28;20044;-77
2022/08/01 09:11:26;;;;;;;2.83;2.35;;;;;;;15.45;100.00;101038.50;5010150;28;20067;-76
2022/08/01 09:14:22;;;;;;;9.90;5.30;;;;;;;15.44;100.00;101036.84;5020806;28;20082;-76
2022/08/01 09:17:09;;;;;;;5.80;4.00;;;;;;;15.52;100.00;101028.56;5030198;28;20507;-77
2022/08/01 09:19:37;;;;;;;7.82;4.25;;;;;;;15.59;100.00;101013.16;5037761;28;20057;-76
2022/08/01 09:22:05;;;;;;;4.03;2.53;;;;;;;15.78;100.00;101034.09;5028815;28;20132;-77
2022/08/01 09:24:32;;;;;;;5.32;3.83;;;;;;;15.74;100.00;101021.97;4990793;28;20036;-76
2022/08/01 09:26:58;;;;;;;8.45;4.10;;;;;;;15.89;100.00;101026.44;4996333;28;20037;-76
2022/08/01 09:29:27;;;;;;;7.93;5.93;;;;;;;16.03;100.00;101020.81;5016472;28;20052;-77
2022/08/01 09:31:53;;;;;;;6.10;4.97;;;;;;;16.24;100.00;101005.41;5021273;28;20037;-76
2022/08/01 09:34:28;;;;;;;4.60;3.70;;;;;;;16.46;100.00;101004.19;5020771;28;20047;-77
2022/08/01 09:36:55;;;;;;;5.68;3.40;;;;;;;16.71;100.00;101019.84;5010061;28;20021;-76
2022/08/01 09:39:24;;;;;;;4.95;2.67;;;;;;;17.02;100.00;101007.50;5003000;28;20502;-76
2022/08/01 09:41:50;;;;;;;3.40;2.67;;;;;;;17.36;100.00;100993.59;5008429;28;20029;-76
2022/08/01 09:44:22;;;;;;;5.25;2.42;;;;;;;17.63;100.00;100990.78;5023338;28;20029;-76
2022/08/01 09:46:55;;;;;;;2.70;1.90;;;;;;;17.63;100.00;100992.66;5026591;28;20052;-76
2022/08/01 09:49:29;;;;;;;3.85;2.78;;;;;;;17.46;100.00;100986.88;4988497;28;20033;-76
2022/08/01 09:51:55;;;;;;;6.53;4.88;;;;;;;17.42;100.00;100981.03;5002181;28;20041;-77
2022/08/01 09:54:33;;;;;;;1.95;1.58;;;;;;;17.36;100.00;100979.19;4990129;28;20045;-77
2022/08/01 09:57:16;;;;;;;2.28;1.70;;;;;;;17.52;100.00;100975.97;4995066;28;20042;-77
2022/08/01 09:59:44;;;;;;;3.58;2.67;;;;;;;17.56;100.00;100963.59;5011843;28;20041;-78
2022/08/01 10:02:14;;;;;;;6.68;5.00;;;;;;;17.75;100.00;100969.16;5012783;28;20040;-78
2022/08/01 10:04:51;;;;;;;3.25;2.10;;;;;;;17.78;100.00;100958.69;5023991;28;20033;-77
2022/08/01 10:07:18;;;;;;;4.20;2.00;;;;;;;17.80;100.00;100951.16;5009887;28;20057;-77
2022/08/01 10:09:45;;;;;;;3.47;2.03;;;;;;;17.90;100.00;100953.41;5023151;28;20038;-77
2022/08/01 10:12:17;;;;;;;4.65;3.42;;;;;;;17.72;100.00;100943.22;5027761;28;20059;-77
2022/08/01 10:14:45;;;;;;;5.05;3.15;;;;;;;17.62;100.00;100926.53;4998594;28;20021;-77
2022/08/01 10:17:14;;;;;;;6.07;3.60;;;;;;;17.96;100.00;100954.41;5023808;28;20045;-78
2022/08/01 10:19:41;;;;;;;3.83;2.00;;;;;;;17.99;100.00;100943.06;4997572;28;20124;-78
2022/08/01 10:22:15;;;;;;;6.05;5.45;;;;;;;18.33;100.00;100944.47;5015471;28;20052;-78
2022/08/01 10:24:44;;;;;;;3.20;2.60;;;;;;;18.61;100.00;100933.13;5006381;28;20033;-78
2022/08/01 10:27:10;;;;;;;2.17;1.50;;;;;;;18.69;100.00;100918.41;5008628;28;20036;-78
2022/08/01 10:29:56;;;;;;;3.08;2.00;;;;;;;18.70;100.00;100941.00;5007290;28;20033;-78
2022/08/01 10:32:23;;;;;;;6.85;2.58;;;;;;;18.33;100.00;100949.09;5027657;28;20041;-77
2022/08/01 10:34:54;;;;;;;3.67;2.70;;;;;;;17.95;100.00;100936.44;4996600;28;20041;-77
2022/08/01 10:37:20;;;;;;;3.55;2.33;;;;;;;18.09;100.00;100934.44;5012980;28;20041;-78
2022/08/01 10:39:45;;;;;;;3.33;2.20;;;;;;;18.32;100.00;100948.28;5013855;28;20061;-78
2022/08/01 10:42:12;;;;;;;2.65;1.65;;;;;;;18.40;100.00;100923.50;4997426;28;20327;-78
2022/08/01 10:44:38;;;;;;;2.80;1.85;;;;;;;18.64;100.00;100940.03;5033966;28;20063;-78
2022/08/01 10:47:09;;;;;;;4.97;1.80;;;;;;;18.71;100.00;100934.50;5008470;28;20061;-78
2022/08/01 10:49:49;;;;;;;1.58;1.23;;;;;;;18.84;100.00;100939.84;5007042;28;20044;-78
2022/08/01 10:52:16;;;;;;;4.68;1.58;;;;;;;18.57;100.00;100925.63;4998047;28;20037;-78
2022/08/01 10:54:43;;;;;;;2.28;1.75;;;;;;;18.50;100.00;100927.56;5011957;28;20033;-78
2022/08/01 10:57:10;;;;;;;2.08;1.42;;;;;;;18.52;100.00;100926.28;5023917;28;20120;-78
2022/08/01 10:59:48;;;;;;;3.05;1.60;;;;;;;18.78;100.00;100938.84;5033570;28;20033;-78
2022/08/01 11:02:26;;;;;;;1.70;1.23;;;;;;;18.92;100.00;100931.38;5008823;28;20391;-78
2022/08/01 11:05:02;;;;;;;1.58;1.20;;;;;;;19.18;100.00;100915.75;4991861;28;20041;-78
2022/08/01 11:07:54;;;;;;;1.73;1.20;;;;;;;19.20;100.00;100927.28;5011294;28;20462;-78
2022/08/01 11:10:26;;;;;;;1.88;1.20;;;;;;;19.01;100.00;100923.72;4997270;28;20045;-78
2022/08/01 11:12:52;;;;;;;1.83;1.02;;;;;;;18.75;100.00;100924.84;5030378;28;20502;-77
2022/08/01 11:15:26;;;;;;;3.28;1.38;;;;;;;18.52;100.00;100911.84;5026363;28;20068;-77
2022/08/01 11:17:53;;;;;;;4.00;1.45;;;;;;;18.54;100.00;100912.47;5009220;28;20056;-77
2022/08/01 11:20:30;;;;;;;1.92;1.40;;;;;;;18.72;100.00;100898.88;4993210;28;20390;-78
2022/08/01 11:23:00;;;;;;;4.30;1.42;;;;;;;18.60;100.00;100906.97;5019727;28;20113;-79
2022/08/01 11:25:35;;;;;;;2.10;1.33;;;;;;;18.43;100.00;100903.16;5004043;28;20046;-78
2022/08/01 11:28:16;;;;;;;2.28;1.48;;;;;;;18.58;100.00;100894.63;5000933;28;20147;-78